sensor_id;sensor_type;location;lat;lon;timestamp;P1;durP1;ratioP1;P2;durP2;ratioP2
83143;SDS011;73035;43.768;2.230;2024-01-15T00:01:43;18.17;;;9.93;;
83143;SDS011;73035;43.768;2.230;2024-01-15T00:04:09;17.02;;;11.32;;
83143;SDS011;73035;43.768;2.230;2024-01-15T00:06:36;18.23;;;10.18;;
83143;SDS011;73035;43.768;2.230;2024-01-15T00:09:01;15.20;;;9.80;;
83143;SDS011;73035;43.768;2.230;2024-01-15T00:11:27;16.80;;;10.25;;
83143;SDS011;73035;43.768;2.230;2024-01-15T00:13:52;17.92;;;12.07;;
83143;SDS011;73035;43.768;2.230;2024-01-15T00:16:18;15.02;;;10.05;;
83143;SDS011;73035;43.768;2.230;2024-01-15T00:18:43;20.08;;;11.85;;
83143;SDS011;73035;43.768;2.230;2024-01-15T00:21:08;15.60;;;9.73;;
83143;SDS011;73035;43.768;2.230;2024-01-15T00:23:34;13.45;;;8.73;;
83143;SDS011;73035;43.768;2.230;2024-01-15T00:25:59;16.75;;;8.77;;
83143;SDS011;73035;43.768;2.230;2024-01-15T00:28:25;14.63;;;9.18;;
83143;SDS011;73035;43.768;2.230;2024-01-15T00:30:50;14.95;;;9.40;;
83143;SDS011;73035;43.768;2.230;2024-01-15T00:33:16;12.20;;;7.82;;
83143;SDS011;73035;43.768;2.230;2024-01-15T00:35:41;15.07;;;8.18;;
83143;SDS011;73035;43.768;2.230;2024-01-15T00:38:07;12.40;;;8.23;;
83143;SDS011;73035;43.768;2.230;2024-01-15T00:40:32;12.60;;;7.35;;
83143;SDS011;73035;43.768;2.230;2024-01-15T00:42:58;11.38;;;7.00;;
83143;SDS011;73035;43.768;2.230;2024-01-15T00:45:23;11.75;;;6.93;;
83143;SDS011;73035;43.768;2.230;2024-01-15T00:47:48;10.43;;;6.68;;
83143;SDS011;73035;43.768;2.230;2024-01-15T00:50:14;12.68;;;7.20;;
83143;SDS011;73035;43.768;2.230;2024-01-15T00:52:39;11.50;;;7.30;;
83143;SDS011;73035;43.768;2.230;2024-01-15T00:55:05;15.63;;;10.43;;
83143;SDS011;73035;43.768;2.230;2024-01-15T00:57:30;13.90;;;8.48;;
83143;SDS011;73035;43.768;2.230;2024-01-15T00:59:56;10.93;;;7.50;;
83143;SDS011;73035;43.768;2.230;2024-01-15T01:02:21;13.65;;;8.77;;
83143;SDS011;73035;43.768;2.230;2024-01-15T01:04:46;14.82;;;9.43;;
83143;SDS011;73035;43.768;2.230;2024-01-15T01:07:12;19.35;;;11.98;;
83143;SDS011;73035;43.768;2.230;2024-01-15T01:09:37;23.15;;;14.73;;
83143;SDS011;73035;43.768;2.230;2024-01-15T01:12:03;25.25;;;15.15;;
83143;SDS011;73035;43.768;2.230;2024-01-15T01:14:28;22.80;;;14.27;;
83143;SDS011;73035;43.768;2.230;2024-01-15T01:16:53;14.35;;;10.55;;
83143;SDS011;73035;43.768;2.230;2024-01-15T01:19:19;18.90;;;11.23;;
83143;SDS011;73035;43.768;2.230;2024-01-15T01:21:44;15.38;;;9.48;;
83143;SDS011;73035;43.768;2.230;2024-01-15T01:24:09;13.38;;;9.20;;
83143;SDS011;73035;43.768;2.230;2024-01-15T01:26:35;15.82;;;9.68;;
83143;SDS011;73035;43.768;2.230;2024-01-15T01:29:00;17.05;;;10.18;;
83143;SDS011;73035;43.768;2.230;2024-01-15T01:31:26;15.80;;;8.55;;
83143;SDS011;73035;43.768;2.230;2024-01-15T01:33:51;13.63;;;7.93;;
83143;SDS011;73035;43.768;2.230;2024-01-15T01:36:16;11.88;;;7.32;;
83143;SDS011;73035;43.768;2.230;2024-01-15T01:38:42;12.52;;;7.55;;
83143;SDS011;73035;43.768;2.230;2024-01-15T01:41:07;10.77;;;6.90;;
83143;SDS011;73035;43.768;2.230;2024-01-15T01:43:33;12.27;;;6.93;;
83143;SDS011;73035;43.768;2.230;2024-01-15T01:45:58;10.55;;;8.65;;
83143;SDS011;73035;43.768;2.230;2024-01-15T01:48:25;9.73;;;7.82;;
83143;SDS011;73035;43.768;2.230;2024-01-15T01:50:52;12.15;;;9.10;;
83143;SDS011;73035;43.768;2.230;2024-01-15T01:53:18;9.00;;;7.07;;
83143;SDS011;73035;43.768;2.230;2024-01-15T01:55:44;9.90;;;6.63;;
83143;SDS011;73035;43.768;2.230;2024-01-15T01:58:10;9.93;;;7.00;;
83143;SDS011;73035;43.768;2.230;2024-01-15T02:00:35;11.75;;;7.57;;
83143;SDS011;73035;43.768;2.230;2024-01-15T02:03:01;11.65;;;7.57;;
83143;SDS011;73035;43.768;2.230;2024-01-15T02:05:28;10.27;;;7.55;;
83143;SDS011;73035;43.768;2.230;2024-01-15T02:07:54;13.52;;;7.03;;
83143;SDS011;73035;43.768;2.230;2024-01-15T02:10:19;12.63;;;7.57;;
83143;SDS011;73035;43.768;2.230;2024-01-15T02:12:45;9.38;;;6.43;;
83143;SDS011;73035;43.768;2.230;2024-01-15T02:15:10;10.60;;;7.75;;
83143;SDS011;73035;43.768;2.230;2024-01-15T02:17:55;10.07;;;5.88;;
83143;SDS011;73035;43.768;2.230;2024-01-15T02:20:22;9.93;;;5.97;;
83143;SDS011;73035;43.768;2.230;2024-01-15T02:22:47;9.13;;;5.88;;
83143;SDS011;73035;43.768;2.230;2024-01-15T02:25:12;8.30;;;6.00;;
83143;SDS011;73035;43.768;2.230;2024-01-15T02:27:38;10.98;;;6.22;;
83143;SDS011;73035;43.768;2.230;2024-01-15T02:30:03;10.60;;;6.55;;
83143;SDS011;73035;43.768;2.230;2024-01-15T02:32:29;11.50;;;5.82;;
83143;SDS011;73035;43.768;2.230;2024-01-15T02:34:54;9.27;;;5.00;;
83143;SDS011;73035;43.768;2.230;2024-01-15T02:37:21;11.38;;;6.22;;
83143;SDS011;73035;43.768;2.230;2024-01-15T02:39:46;7.13;;;5.53;;
83143;SDS011;73035;43.768;2.230;2024-01-15T02:42:11;11.20;;;6.30;;
83143;SDS011;73035;43.768;2.230;2024-01-15T02:44:36;9.50;;;5.63;;
83143;SDS011;73035;43.768;2.230;2024-01-15T02:47:02;12.15;;;6.45;;
83143;SDS011;73035;43.768;2.230;2024-01-15T02:49:27;6.53;;;5.32;;
83143;SDS011;73035;43.768;2.230;2024-01-15T02:51:53;10.85;;;6.50;;
83143;SDS011;73035;43.768;2.230;2024-01-15T02:54:18;9.30;;;6.40;;
83143;SDS011;73035;43.768;2.230;2024-01-15T02:56:43;9.50;;;6.18;;
83143;SDS011;73035;43.768;2.230;2024-01-15T02:59:09;8.85;;;5.50;;
83143;SDS011;73035;43.768;2.230;2024-01-15T03:01:34;8.57;;;5.53;;
83143;SDS011;73035;43.768;2.230;2024-01-15T03:03:59;9.95;;;6.10;;
83143;SDS011;73035;43.768;2.230;2024-01-15T03:06:25;9.13;;;5.47;;
83143;SDS011;73035;43.768;2.230;2024-01-15T03:08:50;12.02;;;7.10;;
83143;SDS011;73035;43.768;2.230;2024-01-15T03:11:15;9.65;;;5.63;;
83143;SDS011;73035;43.768;2.230;2024-01-15T03:13:41;10.27;;;5.93;;
83143;SDS011;73035;43.768;2.230;2024-01-15T03:16:06;7.05;;;5.15;;
83143;SDS011;73035;43.768;2.230;2024-01-15T03:18:32;8.23;;;5.57;;
83143;SDS011;73035;43.768;2.230;2024-01-15T03:20:57;9.05;;;5.65;;
83143;SDS011;73035;43.768;2.230;2024-01-15T03:23:22;9.30;;;6.30;;
83143;SDS011;73035;43.768;2.230;2024-01-15T03:25:48;8.38;;;5.70;;
83143;SDS011;73035;43.768;2.230;2024-01-15T03:28:14;7.43;;;5.80;;
83143;SDS011;73035;43.768;2.230;2024-01-15T03:30:39;7.10;;;5.35;;
83143;SDS011;73035;43.768;2.230;2024-01-15T03:33:04;9.75;;;6.00;;
83143;SDS011;73035;43.768;2.230;2024-01-15T03:35:30;8.60;;;5.97;;
83143;SDS011;73035;43.768;2.230;2024-01-15T03:37:56;10.65;;;5.97;;
83143;SDS011;73035;43.768;2.230;2024-01-15T03:40:21;8.70;;;6.35;;
83143;SDS011;73035;43.768;2.230;2024-01-15T03:42:46;10.18;;;6.25;;
83143;SDS011;73035;43.768;2.230;2024-01-15T03:45:12;8.65;;;5.95;;
83143;SDS011;73035;43.768;2.230;2024-01-15T03:47:37;9.98;;;6.05;;
83143;SDS011;73035;43.768;2.230;2024-01-15T03:50:02;9.45;;;6.05;;
83143;SDS011;73035;43.768;2.230;2024-01-15T03:52:28;8.57;;;5.78;;
83143;SDS011;73035;43.768;2.230;2024-01-15T03:54:53;8.73;;;5.72;;
83143;SDS011;73035;43.768;2.230;2024-01-15T03:57:18;7.88;;;5.60;;
83143;SDS011;73035;43.768;2.230;2024-01-15T03:59:44;8.07;;;5.82;;
83143;SDS011;73035;43.768;2.230;2024-01-15T04:02:12;9.80;;;7.32;;
83143;SDS011;73035;43.768;2.230;2024-01-15T04:04:40;10.88;;;5.85;;
83143;SDS011;73035;43.768;2.230;2024-01-15T04:07:06;10.52;;;6.55;;
83143;SDS011;73035;43.768;2.230;2024-01-15T04:09:32;12.45;;;6.20;;
83143;SDS011;73035;43.768;2.230;2024-01-15T04:11:57;7.50;;;6.25;;
83143;SDS011;73035;43.768;2.230;2024-01-15T04:14:22;8.88;;;5.57;;
83143;SDS011;73035;43.768;2.230;2024-01-15T04:16:48;8.63;;;5.93;;
83143;SDS011;73035;43.768;2.230;2024-01-15T04:19:13;12.65;;;6.63;;
83143;SDS011;73035;43.768;2.230;2024-01-15T04:21:38;8.38;;;5.82;;
83143;SDS011;73035;43.768;2.230;2024-01-15T04:24:04;13.02;;;7.28;;
83143;SDS011;73035;43.768;2.230;2024-01-15T04:26:29;9.98;;;5.90;;
83143;SDS011;73035;43.768;2.230;2024-01-15T04:28:55;11.18;;;7.70;;
83143;SDS011;73035;43.768;2.230;2024-01-15T04:31:24;8.38;;;6.00;;
83143;SDS011;73035;43.768;2.230;2024-01-15T04:33:49;10.13;;;6.30;;
83143;SDS011;73035;43.768;2.230;2024-01-15T04:36:15;11.02;;;7.00;;
83143;SDS011;73035;43.768;2.230;2024-01-15T04:38:40;13.18;;;7.78;;
83143;SDS011;73035;43.768;2.230;2024-01-15T04:41:06;12.25;;;8.00;;
83143;SDS011;73035;43.768;2.230;2024-01-15T04:43:31;14.65;;;7.93;;
83143;SDS011;73035;43.768;2.230;2024-01-15T04:45:57;9.25;;;7.15;;
83143;SDS011;73035;43.768;2.230;2024-01-15T04:48:22;9.63;;;6.35;;
83143;SDS011;73035;43.768;2.230;2024-01-15T04:50:48;9.77;;;6.30;;
83143;SDS011;73035;43.768;2.230;2024-01-15T04:53:13;9.60;;;6.20;;
83143;SDS011;73035;43.768;2.230;2024-01-15T04:55:39;10.32;;;6.65;;
83143;SDS011;73035;43.768;2.230;2024-01-15T04:58:04;10.23;;;6.68;;
83143;SDS011;73035;43.768;2.230;2024-01-15T05:00:29;9.98;;;6.32;;
83143;SDS011;73035;43.768;2.230;2024-01-15T05:02:55;13.93;;;6.63;;
83143;SDS011;73035;43.768;2.230;2024-01-15T05:05:21;11.40;;;7.18;;
83143;SDS011;73035;43.768;2.230;2024-01-15T05:07:46;11.35;;;6.70;;
83143;SDS011;73035;43.768;2.230;2024-01-15T05:10:11;11.32;;;6.93;;
83143;SDS011;73035;43.768;2.230;2024-01-15T05:12:37;10.35;;;7.03;;
83143;SDS011;73035;43.768;2.230;2024-01-15T05:15:03;11.35;;;7.63;;
83143;SDS011;73035;43.768;2.230;2024-01-15T05:17:28;13.10;;;6.35;;
83143;SDS011;73035;43.768;2.230;2024-01-15T05:19:54;10.98;;;6.18;;
83143;SDS011;73035;43.768;2.230;2024-01-15T05:22:19;11.77;;;6.25;;
83143;SDS011;73035;43.768;2.230;2024-01-15T05:24:46;9.02;;;5.50;;
83143;SDS011;73035;43.768;2.230;2024-01-15T05:27:11;8.32;;;5.65;;
83143;SDS011;73035;43.768;2.230;2024-01-15T05:29:37;8.70;;;6.18;;
83143;SDS011;73035;43.768;2.230;2024-01-15T05:32:02;13.23;;;8.63;;
83143;SDS011;73035;43.768;2.230;2024-01-15T05:34:27;12.32;;;7.32;;
83143;SDS011;73035;43.768;2.230;2024-01-15T05:36:53;13.40;;;7.43;;
83143;SDS011;73035;43.768;2.230;2024-01-15T05:39:18;9.50;;;6.53;;
83143;SDS011;73035;43.768;2.230;2024-01-15T05:41:43;9.82;;;6.10;;
83143;SDS011;73035;43.768;2.230;2024-01-15T05:44:09;8.07;;;5.85;;
83143;SDS011;73035;43.768;2.230;2024-01-15T05:46:35;10.57;;;6.03;;
83143;SDS011;73035;43.768;2.230;2024-01-15T05:49:00;10.35;;;6.55;;
83143;SDS011;73035;43.768;2.230;2024-01-15T05:51:25;10.88;;;7.90;;
83143;SDS011;73035;43.768;2.230;2024-01-15T05:53:51;11.52;;;6.60;;
83143;SDS011;73035;43.768;2.230;2024-01-15T05:56:16;10.30;;;6.20;;
83143;SDS011;73035;43.768;2.230;2024-01-15T05:58:42;11.88;;;7.03;;
83143;SDS011;73035;43.768;2.230;2024-01-15T06:01:07;9.30;;;6.85;;
83143;SDS011;73035;43.768;2.230;2024-01-15T06:03:32;8.68;;;6.50;;
83143;SDS011;73035;43.768;2.230;2024-01-15T06:05:58;11.57;;;6.95;;
83143;SDS011;73035;43.768;2.230;2024-01-15T06:08:23;10.05;;;6.40;;
83143;SDS011;73035;43.768;2.230;2024-01-15T06:10:48;10.93;;;6.65;;
83143;SDS011;73035;43.768;2.230;2024-01-15T06:13:14;9.93;;;6.53;;
83143;SDS011;73035;43.768;2.230;2024-01-15T06:15:39;9.82;;;5.93;;
83143;SDS011;73035;43.768;2.230;2024-01-15T06:18:05;8.68;;;6.28;;
83143;SDS011;73035;43.768;2.230;2024-01-15T06:20:30;11.85;;;7.45;;
83143;SDS011;73035;43.768;2.230;2024-01-15T06:22:55;10.85;;;6.90;;
83143;SDS011;73035;43.768;2.230;2024-01-15T06:25:21;12.23;;;7.65;;
83143;SDS011;73035;43.768;2.230;2024-01-15T06:27:46;11.80;;;7.78;;
83143;SDS011;73035;43.768;2.230;2024-01-15T06:30:11;11.15;;;7.00;;
83143;SDS011;73035;43.768;2.230;2024-01-15T06:32:37;10.48;;;7.22;;
83143;SDS011;73035;43.768;2.230;2024-01-15T06:35:03;13.63;;;7.45;;
83143;SDS011;73035;43.768;2.230;2024-01-15T06:39:55;12.27;;;6.85;;
83143;SDS011;73035;43.768;2.230;2024-01-15T06:42:20;10.15;;;6.60;;
83143;SDS011;73035;43.768;2.230;2024-01-15T06:44:47;9.80;;;7.00;;
83143;SDS011;73035;43.768;2.230;2024-01-15T06:47:12;8.90;;;5.85;;
83143;SDS011;73035;43.768;2.230;2024-01-15T06:49:37;10.50;;;6.82;;
83143;SDS011;73035;43.768;2.230;2024-01-15T06:52:03;11.02;;;7.63;;
83143;SDS011;73035;43.768;2.230;2024-01-15T06:54:28;11.20;;;6.43;;
83143;SDS011;73035;43.768;2.230;2024-01-15T06:56:54;11.25;;;6.85;;
83143;SDS011;73035;43.768;2.230;2024-01-15T06:59:19;9.43;;;7.15;;
83143;SDS011;73035;43.768;2.230;2024-01-15T07:01:44;10.45;;;7.60;;
83143;SDS011;73035;43.768;2.230;2024-01-15T07:04:10;10.55;;;6.60;;
83143;SDS011;73035;43.768;2.230;2024-01-15T07:06:35;15.90;;;10.55;;
83143;SDS011;73035;43.768;2.230;2024-01-15T07:09:00;10.43;;;7.25;;
83143;SDS011;73035;43.768;2.230;2024-01-15T07:11:26;9.32;;;6.78;;
83143;SDS011;73035;43.768;2.230;2024-01-15T07:13:51;14.57;;;8.07;;
83143;SDS011;73035;43.768;2.230;2024-01-15T07:16:16;11.98;;;7.55;;
83143;SDS011;73035;43.768;2.230;2024-01-15T07:18:42;23.20;;;13.75;;
83143;SDS011;73035;43.768;2.230;2024-01-15T07:21:07;19.13;;;11.90;;
83143;SDS011;73035;43.768;2.230;2024-01-15T07:23:32;17.40;;;10.35;;
83143;SDS011;73035;43.768;2.230;2024-01-15T07:25:58;14.95;;;8.93;;
83143;SDS011;73035;43.768;2.230;2024-01-15T07:28:23;13.60;;;9.13;;
83143;SDS011;73035;43.768;2.230;2024-01-15T07:30:49;16.70;;;9.35;;
83143;SDS011;73035;43.768;2.230;2024-01-15T07:33:14;15.43;;;9.70;;
83143;SDS011;73035;43.768;2.230;2024-01-15T07:35:39;12.25;;;7.97;;
83143;SDS011;73035;43.768;2.230;2024-01-15T07:38:05;12.48;;;7.72;;
83143;SDS011;73035;43.768;2.230;2024-01-15T07:40:30;10.88;;;7.43;;
83143;SDS011;73035;43.768;2.230;2024-01-15T07:42:55;12.32;;;6.90;;
83143;SDS011;73035;43.768;2.230;2024-01-15T07:45:21;11.25;;;8.40;;
83143;SDS011;73035;43.768;2.230;2024-01-15T07:47:46;12.85;;;8.25;;
83143;SDS011;73035;43.768;2.230;2024-01-15T07:50:12;12.10;;;7.65;;
83143;SDS011;73035;43.768;2.230;2024-01-15T07:52:37;11.20;;;6.93;;
83143;SDS011;73035;43.768;2.230;2024-01-15T07:55:02;10.88;;;7.43;;
83143;SDS011;73035;43.768;2.230;2024-01-15T07:57:30;13.73;;;6.85;;
83143;SDS011;73035;43.768;2.230;2024-01-15T07:59:56;11.60;;;8.10;;
83143;SDS011;73035;43.768;2.230;2024-01-15T08:02:21;13.05;;;8.52;;
83143;SDS011;73035;43.768;2.230;2024-01-15T08:04:47;13.00;;;8.45;;
83143;SDS011;73035;43.768;2.230;2024-01-15T08:07:12;18.60;;;8.05;;
83143;SDS011;73035;43.768;2.230;2024-01-15T08:09:38;14.10;;;8.02;;
83143;SDS011;73035;43.768;2.230;2024-01-15T08:12:03;11.95;;;7.75;;
83143;SDS011;73035;43.768;2.230;2024-01-15T08:14:31;14.70;;;7.65;;
83143;SDS011;73035;43.768;2.230;2024-01-15T08:16:56;13.65;;;8.10;;
83143;SDS011;73035;43.768;2.230;2024-01-15T08:19:21;9.20;;;6.57;;
83143;SDS011;73035;43.768;2.230;2024-01-15T08:21:47;11.55;;;7.22;;
83143;SDS011;73035;43.768;2.230;2024-01-15T08:24:12;13.32;;;8.27;;
83143;SDS011;73035;43.768;2.230;2024-01-15T08:26:37;15.35;;;10.48;;
83143;SDS011;73035;43.768;2.230;2024-01-15T08:29:03;12.27;;;7.05;;
83143;SDS011;73035;43.768;2.230;2024-01-15T08:31:28;10.38;;;6.60;;
83143;SDS011;73035;43.768;2.230;2024-01-15T08:33:53;10.45;;;6.93;;
83143;SDS011;73035;43.768;2.230;2024-01-15T08:36:20;13.57;;;6.00;;
83143;SDS011;73035;43.768;2.230;2024-01-15T08:41:11;11.67;;;7.33;;
83143;SDS011;73035;43.768;2.230;2024-01-15T08:43:37;15.10;;;7.88;;
83143;SDS011;73035;43.768;2.230;2024-01-15T08:46:02;12.55;;;6.57;;
83143;SDS011;73035;43.768;2.230;2024-01-15T08:48:28;10.02;;;5.38;;
83143;SDS011;73035;43.768;2.230;2024-01-15T08:50:53;10.02;;;5.68;;
83143;SDS011;73035;43.768;2.230;2024-01-15T08:53:19;10.50;;;6.07;;
83143;SDS011;73035;43.768;2.230;2024-01-15T08:55:45;15.30;;;7.40;;
83143;SDS011;73035;43.768;2.230;2024-01-15T08:58:10;11.38;;;5.88;;
83143;SDS011;73035;43.768;2.230;2024-01-15T09:00:36;13.63;;;6.88;;
83143;SDS011;73035;43.768;2.230;2024-01-15T09:03:01;11.55;;;6.38;;
83143;SDS011;73035;43.768;2.230;2024-01-15T09:05:27;10.07;;;5.53;;
83143;SDS011;73035;43.768;2.230;2024-01-15T09:07:53;19.25;;;12.82;;
83143;SDS011;73035;43.768;2.230;2024-01-15T09:10:19;13.90;;;8.35;;
83143;SDS011;73035;43.768;2.230;2024-01-15T09:12:45;17.00;;;9.02;;
83143;SDS011;73035;43.768;2.230;2024-01-15T09:15:10;11.43;;;7.57;;
83143;SDS011;73035;43.768;2.230;2024-01-15T09:17:35;11.68;;;6.53;;
83143;SDS011;73035;43.768;2.230;2024-01-15T09:20:01;9.32;;;6.35;;
83143;SDS011;73035;43.768;2.230;2024-01-15T09:22:26;21.70;;;12.48;;
83143;SDS011;73035;43.768;2.230;2024-01-15T09:24:52;15.93;;;8.70;;
83143;SDS011;73035;43.768;2.230;2024-01-15T09:27:17;9.32;;;6.30;;
83143;SDS011;73035;43.768;2.230;2024-01-15T09:29:43;9.05;;;5.72;;
83143;SDS011;73035;43.768;2.230;2024-01-15T09:32:10;9.88;;;5.70;;
83143;SDS011;73035;43.768;2.230;2024-01-15T09:34:37;10.95;;;6.82;;
83143;SDS011;73035;43.768;2.230;2024-01-15T09:37:02;12.15;;;6.53;;
83143;SDS011;73035;43.768;2.230;2024-01-15T09:39:29;12.05;;;6.30;;
83143;SDS011;73035;43.768;2.230;2024-01-15T09:41:54;11.10;;;6.55;;
83143;SDS011;73035;43.768;2.230;2024-01-15T09:44:20;16.50;;;10.73;;
83143;SDS011;73035;43.768;2.230;2024-01-15T09:46:46;12.30;;;7.80;;
83143;SDS011;73035;43.768;2.230;2024-01-15T09:49:12;19.42;;;12.10;;
83143;SDS011;73035;43.768;2.230;2024-01-15T09:51:37;9.57;;;6.10;;
83143;SDS011;73035;43.768;2.230;2024-01-15T09:54:04;12.70;;;6.40;;
83143;SDS011;73035;43.768;2.230;2024-01-15T09:56:30;15.63;;;5.53;;
83143;SDS011;73035;43.768;2.230;2024-01-15T09:58:55;8.23;;;5.35;;
83143;SDS011;73035;43.768;2.230;2024-01-15T10:01:22;10.95;;;5.93;;
83143;SDS011;73035;43.768;2.230;2024-01-15T10:03:47;9.90;;;4.97;;
83143;SDS011;73035;43.768;2.230;2024-01-15T10:06:16;12.27;;;9.18;;
83143;SDS011;73035;43.768;2.230;2024-01-15T10:08:42;7.47;;;4.68;;
83143;SDS011;73035;43.768;2.230;2024-01-15T10:11:09;13.75;;;4.97;;
83143;SDS011;73035;43.768;2.230;2024-01-15T10:13:34;8.60;;;5.70;;
83143;SDS011;73035;43.768;2.230;2024-01-15T10:16:00;9.40;;;5.63;;
83143;SDS011;73035;43.768;2.230;2024-01-15T10:18:28;8.77;;;4.75;;
83143;SDS011;73035;43.768;2.230;2024-01-15T10:20:53;12.23;;;5.82;;
83143;SDS011;73035;43.768;2.230;2024-01-15T10:23:18;7.60;;;4.80;;
83143;SDS011;73035;43.768;2.230;2024-01-15T10:25:44;7.10;;;5.15;;
83143;SDS011;73035;43.768;2.230;2024-01-15T10:28:09;9.23;;;4.90;;
83143;SDS011;73035;43.768;2.230;2024-01-15T10:30:35;8.65;;;5.45;;
83143;SDS011;73035;43.768;2.230;2024-01-15T10:33:00;8.18;;;4.97;;
83143;SDS011;73035;43.768;2.230;2024-01-15T10:35:31;9.35;;;4.63;;
83143;SDS011;73035;43.768;2.230;2024-01-15T10:37:58;8.55;;;5.22;;
83143;SDS011;73035;43.768;2.230;2024-01-15T10:42:49;8.77;;;5.60;;
83143;SDS011;73035;43.768;2.230;2024-01-15T10:45:15;7.20;;;4.25;;
83143;SDS011;73035;43.768;2.230;2024-01-15T10:47:40;62.17;;;25.38;;
83143;SDS011;73035;43.768;2.230;2024-01-15T10:50:06;27.83;;;12.73;;
83143;SDS011;73035;43.768;2.230;2024-01-15T10:52:33;16.42;;;6.15;;
83143;SDS011;73035;43.768;2.230;2024-01-15T10:54:59;12.52;;;6.43;;
83143;SDS011;73035;43.768;2.230;2024-01-15T10:57:25;9.60;;;5.50;;
83143;SDS011;73035;43.768;2.230;2024-01-15T11:02:16;7.93;;;4.00;;
83143;SDS011;73035;43.768;2.230;2024-01-15T11:07:07;8.83;;;4.77;;
83143;SDS011;73035;43.768;2.230;2024-01-15T11:09:32;10.18;;;5.47;;
83143;SDS011;73035;43.768;2.230;2024-01-15T11:14:44;10.10;;;4.93;;
83143;SDS011;73035;43.768;2.230;2024-01-15T11:17:14;6.55;;;4.57;;
83143;SDS011;73035;43.768;2.230;2024-01-15T11:22:09;12.87;;;5.83;;
83143;SDS011;73035;43.768;2.230;2024-01-15T11:24:37;9.40;;;4.88;;
83143;SDS011;73035;43.768;2.230;2024-01-15T11:27:04;9.18;;;4.80;;
83143;SDS011;73035;43.768;2.230;2024-01-15T11:29:33;13.13;;;5.13;;
83143;SDS011;73035;43.768;2.230;2024-01-15T11:37:09;8.18;;;4.78;;
83143;SDS011;73035;43.768;2.230;2024-01-15T11:39:41;8.50;;;4.80;;
83143;SDS011;73035;43.768;2.230;2024-01-15T11:42:10;11.30;;;5.05;;
83143;SDS011;73035;43.768;2.230;2024-01-15T11:44:39;8.00;;;4.90;;
83143;SDS011;73035;43.768;2.230;2024-01-15T11:47:05;8.52;;;4.68;;
83143;SDS011;73035;43.768;2.230;2024-01-15T11:52:37;9.52;;;4.53;;
83143;SDS011;73035;43.768;2.230;2024-01-15T11:57:50;8.15;;;4.82;;
83143;SDS011;73035;43.768;2.230;2024-01-15T12:00:16;8.57;;;4.97;;
83143;SDS011;73035;43.768;2.230;2024-01-15T12:05:08;8.23;;;4.60;;
83143;SDS011;73035;43.768;2.230;2024-01-15T12:07:34;7.25;;;4.50;;
83143;SDS011;73035;43.768;2.230;2024-01-15T12:15:20;9.90;;;5.43;;
83143;SDS011;73035;43.768;2.230;2024-01-15T12:20:12;7.97;;;4.65;;
83143;SDS011;73035;43.768;2.230;2024-01-15T12:25:03;7.25;;;3.60;;
83143;SDS011;73035;43.768;2.230;2024-01-15T12:29:54;8.17;;;3.70;;
83143;SDS011;73035;43.768;2.230;2024-01-15T12:34:48;8.05;;;4.13;;
83143;SDS011;73035;43.768;2.230;2024-01-15T12:37:14;8.38;;;4.22;;
83143;SDS011;73035;43.768;2.230;2024-01-15T12:42:04;8.37;;;4.10;;
83143;SDS011;73035;43.768;2.230;2024-01-15T12:44:30;6.22;;;3.95;;
83143;SDS011;73035;43.768;2.230;2024-01-15T12:49:23;6.75;;;4.00;;
83143;SDS011;73035;43.768;2.230;2024-01-15T12:51:52;7.60;;;4.22;;
83143;SDS011;73035;43.768;2.230;2024-01-15T12:54:24;7.30;;;4.10;;
83143;SDS011;73035;43.768;2.230;2024-01-15T12:59:15;10.25;;;4.20;;
83143;SDS011;73035;43.768;2.230;2024-01-15T13:04:06;6.13;;;4.00;;
83143;SDS011;73035;43.768;2.230;2024-01-15T13:06:34;6.00;;;4.25;;
83143;SDS011;73035;43.768;2.230;2024-01-15T13:09:02;8.63;;;4.35;;
83143;SDS011;73035;43.768;2.230;2024-01-15T13:11:34;5.35;;;3.17;;
83143;SDS011;73035;43.768;2.230;2024-01-15T13:13:59;6.75;;;3.33;;
83143;SDS011;73035;43.768;2.230;2024-01-15T13:18:53;7.07;;;3.42;;
83143;SDS011;73035;43.768;2.230;2024-01-15T13:23:44;8.80;;;4.10;;
83143;SDS011;73035;43.768;2.230;2024-01-15T13:28:34;6.90;;;3.77;;
83143;SDS011;73035;43.768;2.230;2024-01-15T13:33:25;6.30;;;4.13;;
83143;SDS011;73035;43.768;2.230;2024-01-15T13:38:16;5.83;;;3.93;;
83143;SDS011;73035;43.768;2.230;2024-01-15T13:43:06;6.13;;;4.03;;
83143;SDS011;73035;43.768;2.230;2024-01-15T13:45:33;7.38;;;4.35;;
83143;SDS011;73035;43.768;2.230;2024-01-15T13:47:59;7.10;;;4.90;;
83143;SDS011;73035;43.768;2.230;2024-01-15T13:52:50;10.87;;;6.50;;
83143;SDS011;73035;43.768;2.230;2024-01-15T13:57:41;7.03;;;4.70;;
83143;SDS011;73035;43.768;2.230;2024-01-15T14:00:06;7.55;;;4.20;;
83143;SDS011;73035;43.768;2.230;2024-01-15T14:02:36;6.43;;;4.28;;
83143;SDS011;73035;43.768;2.230;2024-01-15T14:07:27;7.10;;;4.57;;
83143;SDS011;73035;43.768;2.230;2024-01-15T14:12:18;7.57;;;4.00;;
83143;SDS011;73035;43.768;2.230;2024-01-15T14:17:08;8.73;;;4.03;;
83143;SDS011;73035;43.768;2.230;2024-01-15T14:21:59;7.37;;;4.33;;
83143;SDS011;73035;43.768;2.230;2024-01-15T14:26:49;13.27;;;4.83;;
83143;SDS011;73035;43.768;2.230;2024-01-15T14:31:40;6.97;;;4.20;;
83143;SDS011;73035;43.768;2.230;2024-01-15T14:34:05;8.10;;;5.00;;
83143;SDS011;73035;43.768;2.230;2024-01-15T14:36:32;8.55;;;5.75;;
83143;SDS011;73035;43.768;2.230;2024-01-15T14:41:23;9.57;;;5.77;;
83143;SDS011;73035;43.768;2.230;2024-01-15T14:46:14;11.20;;;7.13;;
83143;SDS011;73035;43.768;2.230;2024-01-15T14:51:05;10.05;;;6.13;;
83143;SDS011;73035;43.768;2.230;2024-01-15T14:53:30;11.75;;;5.68;;
83143;SDS011;73035;43.768;2.230;2024-01-15T14:55:56;10.57;;;5.78;;
83143;SDS011;73035;43.768;2.230;2024-01-15T15:00:46;7.47;;;4.83;;
83143;SDS011;73035;43.768;2.230;2024-01-15T15:05:39;10.40;;;5.57;;
83143;SDS011;73035;43.768;2.230;2024-01-15T15:08:04;10.55;;;5.20;;
83143;SDS011;73035;43.768;2.230;2024-01-15T15:10:33;11.80;;;5.60;;
83143;SDS011;73035;43.768;2.230;2024-01-15T15:15:24;7.70;;;4.17;;
83143;SDS011;73035;43.768;2.230;2024-01-15T15:20:15;7.70;;;4.50;;
83143;SDS011;73035;43.768;2.230;2024-01-15T15:22:40;8.70;;;5.40;;
83143;SDS011;73035;43.768;2.230;2024-01-15T15:27:33;7.80;;;4.68;;
83143;SDS011;73035;43.768;2.230;2024-01-15T15:30:00;9.98;;;4.72;;
83143;SDS011;73035;43.768;2.230;2024-01-15T15:32:25;8.07;;;5.00;;
83143;SDS011;73035;43.768;2.230;2024-01-15T15:34:50;10.25;;;5.05;;
83143;SDS011;73035;43.768;2.230;2024-01-15T15:39:42;8.50;;;4.78;;
83143;SDS011;73035;43.768;2.230;2024-01-15T15:42:07;9.20;;;5.13;;
83143;SDS011;73035;43.768;2.230;2024-01-15T15:46:58;8.60;;;4.70;;
83143;SDS011;73035;43.768;2.230;2024-01-15T15:51:49;10.07;;;4.10;;
83143;SDS011;73035;43.768;2.230;2024-01-15T15:56:39;6.57;;;4.27;;
83143;SDS011;73035;43.768;2.230;2024-01-15T16:01:31;9.80;;;5.63;;
83143;SDS011;73035;43.768;2.230;2024-01-15T16:03:57;12.65;;;6.85;;
83143;SDS011;73035;43.768;2.230;2024-01-15T16:08:48;9.00;;;5.57;;
83143;SDS011;73035;43.768;2.230;2024-01-15T16:13:39;11.00;;;5.53;;
83143;SDS011;73035;43.768;2.230;2024-01-15T16:16:04;10.85;;;5.05;;
83143;SDS011;73035;43.768;2.230;2024-01-15T16:20:55;9.37;;;4.80;;
83143;SDS011;73035;43.768;2.230;2024-01-15T16:25:46;9.40;;;5.60;;
83143;SDS011;73035;43.768;2.230;2024-01-15T16:28:11;11.38;;;6.30;;
83143;SDS011;73035;43.768;2.230;2024-01-15T16:30:36;14.73;;;6.13;;
83143;SDS011;73035;43.768;2.230;2024-01-15T16:33:02;22.13;;;9.82;;
83143;SDS011;73035;43.768;2.230;2024-01-15T16:37:53;16.30;;;7.93;;
83143;SDS011;73035;43.768;2.230;2024-01-15T16:40:18;13.73;;;6.95;;
83143;SDS011;73035;43.768;2.230;2024-01-15T16:45:10;9.30;;;6.05;;